This is the latest recevied weather packets stored in our database for station/object DK0GS-10. If no packets are shown the sender has not sent any weather packets the latest 10 day(s).
| Time | Temp. | Humidity | Pressure | Rain* | Wind** | Luminosity | Snow |
|---|---|---|---|---|---|---|---|
| 1778243722 | 10.56° C | 82% | 1018.8 hPa | 0 mm | - | - | - |
| 1778231722 | 9.44° C | 91% | 1018.7 hPa | 0 mm | - | - | - |
| 1778226922 | 8.89° C | 95% | 1018.5 hPa | 0 mm | - | - | - |
| 1778226361 | 8.89° C | 95% | 1018.5 hPa | 0 mm | - | - | - |
| 1778223322 | 7.78° C | 96% | 1018.2 hPa | 0 mm | - | - | - |
| 1778220922 | 7.22° C | 96% | 1017.8 hPa | 0 mm | - | - | - |
| 1778220322 | 7.22° C | 96% | 1017.7 hPa | 0 mm | - | - | - |
| 1778214347 | 6.67° C | 96% | 1017.1 hPa | 0 mm | - | - | - |
| 1778213122 | 6.11° C | 96% | 1016.9 hPa | 0 mm | - | - | - |
| 1778210121 | 6.67° C | 96% | 1016.9 hPa | 0 mm | - | - | - |
| 1778207121 | 7.22° C | 96% | 1017.1 hPa | 0 mm | - | - | - |
| 1778205922 | 7.22° C | 96% | 1017.2 hPa | 0 mm | - | - | - |
| 1778204760 | 7.22° C | 96% | 1017.1 hPa | 0 mm | - | - | - |
| 1778201721 | 7.22° C | 96% | 1017 hPa | 0 mm | - | - | - |
| 1778201121 | 7.22° C | 96% | 1016.9 hPa | 0 mm | - | - | - |
| 1778199935 | 7.22° C | 96% | 1017 hPa | 0 mm | - | - | - |
| 1778198160 | 7.22° C | 96% | 1017.2 hPa | 0 mm | - | - | - |
| 1778196921 | 7.22° C | 96% | 1017.2 hPa | 0 mm | - | - | - |
| 1778195121 | 7.22° C | 95% | 1017 hPa | 0 mm | - | - | - |
| 1778187960 | 7.22° C | 95% | 1016.6 hPa | 0 mm | - | - | - |
| 1778181921 | 7.78° C | 95% | 1016.2 hPa | 0 mm | - | - | - |
| 1778175923 | 7.78° C | 94% | 1015.6 hPa | 0 mm | - | - | - |
| 1778175323 | 7.78° C | 94% | 1015.4 hPa | 0 mm | - | - | - |
| 1778172924 | 7.78° C | 94% | 1015.2 hPa | 0.51 mm | - | - | - |
| 1778163947 | 8.33° C | 92% | 1014.7 hPa | 0 mm | - | - | - |
* Rain latest hour (hover to see other rain measurements)
** Current wind speed in m/s (hover to see current wind gust speed)